Time;durP1;ratioP1;P1;durP2;ratioP2;P2;SDS_P1;SDS_P2;PMS_P1;PMS_P2;Temp;Humidity;BMP_temperature;BMP_pressure;BME280_temperature;BME280_humidity;BME280_pressure;Samples;Min_cycle;Max_cycle;Signal;HPM_P1;HPM_P2
2021/12/11 00:00:21;;;;;;;19.50;10.93;;;;;;;-2.66;69.97;99818.00;685300;28;1092;-87
2021/12/11 00:00:50;;;;;;;18.25;10.63;;;;;;;-2.68;70.18;99811.91;685686;28;1217;-87
2021/12/11 00:01:18;;;;;;;16.70;11.02;;;;;;;-2.57;70.12;99830.47;685286;28;1154;-87
2021/12/11 00:01:51;;;;;;;19.70;11.70;;;;;;;-2.63;69.92;99824.22;685266;28;1359;-87
2021/12/11 00:02:19;;;;;;;21.33;11.82;;;;;;;-2.64;69.98;99822.41;685424;28;1365;-87
2021/12/11 00:02:40;;;;;;;19.13;11.85;;;;;;;-2.65;70.02;99817.22;690172;28;1402;-87
2021/12/11 00:03:15;;;;;;;16.60;11.32;;;;;;;-2.61;70.13;99821.72;685249;28;1458;-87
2021/12/11 00:03:39;;;;;;;16.30;11.40;;;;;;;-2.60;69.71;99825.19;686965;28;889;-86
2021/12/11 00:04:01;;;;;;;17.35;11.60;;;;;;;-2.55;70.13;99834.91;688020;28;1226;-87
2021/12/11 00:04:33;;;;;;;17.73;11.63;;;;;;;-2.63;69.77;99820.75;685590;28;843;-87
2021/12/11 00:04:57;;;;;;;18.65;11.30;;;;;;;-2.67;70.13;99821.34;685425;28;985;-86
2021/12/11 00:05:18;;;;;;;18.63;11.02;;;;;;;-2.56;69.94;99835.69;682759;29;1152;-87
2021/12/11 00:05:42;;;;;;;18.27;11.10;;;;;;;-2.62;69.95;99832.75;681996;28;1117;-87
2021/12/11 00:06:09;;;;;;;17.60;11.15;;;;;;;-2.62;70.03;99827.63;682735;29;1120;-87
2021/12/11 00:06:36;;;;;;;17.20;10.77;;;;;;;-2.56;70.06;99843.38;682651;28;1350;-87
2021/12/11 00:07:08;;;;;;;16.75;10.65;;;;;;;-2.61;70.05;99839.63;685283;28;1346;-87
2021/12/11 00:07:29;;;;;;;16.52;11.20;;;;;;;-2.62;69.77;99845.50;689677;28;1387;-86
2021/12/11 00:07:50;;;;;;;17.38;11.38;;;;;;;-2.68;69.95;99832.31;690631;28;1272;-87
2021/12/11 00:08:16;;;;;;;16.38;11.20;;;;;;;-2.66;69.43;99841.00;688957;28;1220;-87
2021/12/11 00:08:38;;;;;;;17.50;11.60;;;;;;;-2.68;69.98;99845.09;689026;28;1143;-86
2021/12/11 00:09:20;;;;;;;17.30;11.25;;;;;;;-2.77;69.85;99828.38;688064;28;974;-87
2021/12/11 00:09:47;;;;;;;18.92;10.80;;;;;;;-2.77;70.12;99828.38;685620;28;1958;-87
2021/12/11 00:10:18;;;;;;;18.90;11.05;;;;;;;-2.67;69.65;99846.91;688028;28;1085;-86
2021/12/11 00:10:47;;;;;;;19.20;10.75;;;;;;;-2.75;69.95;99838.72;682891;28;1269;-86
2021/12/11 00:11:14;;;;;;;19.50;10.48;;;;;;;-2.76;70.03;99844.59;687777;28;1782;-87
2021/12/11 00:11:38;;;;;;;20.02;10.90;;;;;;;-2.80;69.96;99838.41;687931;28;1521;-86
2021/12/11 00:12:05;;;;;;;19.20;10.95;;;;;;;-2.72;69.88;99848.25;688007;28;1028;-87
2021/12/11 00:12:31;;;;;;;20.00;11.50;;;;;;;-2.85;70.03;99832.09;687928;28;1208;-86
2021/12/11 00:12:58;;;;;;;20.67;11.73;;;;;;;-2.81;70.00;99851.97;688131;28;1269;-86
2021/12/11 00:13:26;;;;;;;20.63;11.55;;;;;;;-2.89;70.00;99835.25;682593;29;1295;-86
2021/12/11 00:13:47;;;;;;;18.13;11.13;;;;;;;-2.86;69.99;99843.09;681897;29;1123;-87
2021/12/11 00:14:10;;;;;;;18.10;11.20;;;;;;;-2.87;70.06;99843.88;685327;28;1057;-87
2021/12/11 00:14:34;;;;;;;17.08;11.13;;;;;;;-2.89;69.80;99842.91;691077;28;1258;-86
2021/12/11 00:15:01;;;;;;;16.08;10.70;;;;;;;-2.88;70.38;99849.78;687960;28;1276;-86
2021/12/11 00:15:31;;;;;;;19.02;11.13;;;;;;;-2.95;69.84;99837.38;685694;28;1094;-87
2021/12/11 00:15:53;;;;;;;20.45;10.90;;;;;;;-2.86;69.95;99855.00;687562;28;2007;-86
2021/12/11 00:16:18;;;;;;;18.80;10.60;;;;;;;-2.91;70.03;99845.34;685383;28;1467;-86
2021/12/11 00:16:39;;;;;;;18.30;11.00;;;;;;;-2.91;70.12;99854.66;683270;28;1257;-87
2021/12/11 00:17:00;;;;;;;17.05;10.40;;;;;;;-2.91;70.02;99853.00;685436;28;961;-87
2021/12/11 00:17:31;;;;;;;19.25;10.20;;;;;;;-3.00;69.92;99843.84;685355;28;1445;-87
2021/12/11 00:18:01;;;;;;;21.00;11.20;;;;;;;-3.04;70.01;99832.53;685661;28;1088;-87
2021/12/11 00:18:25;;;;;;;19.95;11.80;;;;;;;-2.93;70.20;99851.13;685377;28;1088;-86
2021/12/11 00:18:53;;;;;;;19.13;11.70;;;;;;;-2.97;70.36;99849.16;686161;28;772;-86
2021/12/11 00:19:26;;;;;;;20.58;11.98;;;;;;;-3.00;70.37;99843.84;684831;28;1303;-86
2021/12/11 00:19:47;;;;;;;22.42;11.30;;;;;;;-2.93;70.02;99857.13;684531;28;897;-87
2021/12/11 00:20:18;;;;;;;22.75;11.27;;;;;;;-2.89;69.92;99864.97;687993;28;1254;-87
2021/12/11 00:20:43;;;;;;;18.70;11.50;;;;;;;-3.01;69.81;99848.06;686587;28;1218;-87
2021/12/11 00:21:08;;;;;;;17.20;11.20;;;;;;;-2.98;70.15;99844.84;684046;28;1114;-86
2021/12/11 00:21:30;;;;;;;16.30;11.15;;;;;;;-2.94;70.14;99851.91;683712;28;1266;-87
2021/12/11 00:21:52;;;;;;;18.20;11.55;;;;;;;-3.01;69.97;99848.06;684674;28;1053;-86
2021/12/11 00:22:16;;;;;;;21.00;11.88;;;;;;;-3.00;70.32;99849.84;685438;28;1273;-87
2021/12/11 00:22:41;;;;;;;22.42;11.52;;;;;;;-2.98;70.16;99857.59;688095;28;1049;-87
2021/12/11 00:23:04;;;;;;;18.27;10.80;;;;;;;-2.91;70.05;99869.97;690290;28;1102;-86
2021/12/11 00:23:39;;;;;;;17.95;10.63;;;;;;;-2.99;70.09;99856.72;690346;28;1081;-87
2021/12/11 00:24:03;;;;;;;16.38;10.82;;;;;;;-2.90;70.03;99879.44;687685;28;1232;-87
2021/12/11 00:24:26;;;;;;;15.68;11.23;;;;;;;-2.95;70.12;99879.13;687305;28;1086;-86
2021/12/11 00:24:47;;;;;;;17.52;11.85;;;;;;;-2.90;70.29;99876.88;689772;28;1095;-87
2021/12/11 00:25:11;;;;;;;19.60;11.05;;;;;;;-2.91;70.27;99880.19;688032;28;1364;-86
2021/12/11 00:25:32;;;;;;;18.17;10.55;;;;;;;-2.98;70.15;99871.25;686628;28;1275;-86
2021/12/11 00:25:52;;;;;;;14.57;10.20;;;;;;;-3.06;70.05;99859.63;687934;28;990;-87
2021/12/11 00:26:21;;;;;;;15.70;10.70;;;;;;;-2.99;70.18;99872.03;685017;28;1811;-86
2021/12/11 00:26:46;;;;;;;17.55;10.55;;;;;;;-3.03;70.00;99872.59;687922;28;1401;-87
2021/12/11 00:27:10;;;;;;;15.63;9.88;;;;;;;-2.97;69.87;99875.56;687954;28;1203;-86
2021/12/11 00:27:31;;;;;;;14.27;9.75;;;;;;;-3.00;70.00;99869.34;688020;28;1150;-87
2021/12/11 00:28:01;;;;;;;13.57;9.88;;;;;;;-3.00;69.88;99866.81;685337;28;1000;-86
2021/12/11 00:28:21;;;;;;;14.82;9.70;;;;;;;-2.96;70.12;99876.47;688056;28;1237;-86
2021/12/11 00:28:45;;;;;;;17.60;10.03;;;;;;;-3.02;70.21;99866.72;690582;28;1300;-86
2021/12/11 00:29:09;;;;;;;16.77;10.05;;;;;;;-2.93;70.22;99881.75;688334;28;1382;-86
2021/12/11 00:29:31;;;;;;;16.92;10.20;;;;;;;-3.03;70.06;99875.13;689227;28;1098;-86
2021/12/11 00:29:53;;;;;;;16.02;10.40;;;;;;;-3.00;70.09;99879.56;684718;28;1981;-86
2021/12/11 00:30:27;;;;;;;16.27;10.40;;;;;;;-2.94;70.07;99891.09;685354;28;1081;-87
2021/12/11 00:30:48;;;;;;;16.38;10.15;;;;;;;-3.06;70.22;99872.38;685334;28;1225;-86
2021/12/11 00:31:09;;;;;;;19.00;10.00;;;;;;;-3.02;70.13;99879.50;686036;28;1723;-86
2021/12/11 00:31:32;;;;;;;19.80;10.02;;;;;;;-3.03;70.11;99875.13;685347;28;1269;-87
2021/12/11 00:32:07;;;;;;;17.65;9.50;;;;;;;-2.94;69.99;99890.22;687951;28;1021;-87
2021/12/11 00:32:31;;;;;;;15.55;9.68;;;;;;;-3.04;69.91;99873.38;685253;28;910;-87
2021/12/11 00:33:07;;;;;;;17.00;10.32;;;;;;;-3.03;70.02;99881.94;687669;28;1080;-87
2021/12/11 00:33:32;;;;;;;18.83;10.30;;;;;;;-2.99;70.05;99886.44;686099;28;1096;-86
2021/12/11 00:33:54;;;;;;;17.38;10.25;;;;;;;-2.97;70.09;99890.88;690512;28;1376;-86
2021/12/11 00:34:17;;;;;;;16.48;9.88;;;;;;;-2.92;69.90;99899.75;684997;28;1670;-86
2021/12/11 00:34:43;;;;;;;15.60;9.93;;;;;;;-2.92;70.19;99899.75;687833;28;1115;-86
2021/12/11 00:35:10;;;;;;;16.08;10.25;;;;;;;-2.99;70.19;99886.44;687880;28;1338;-86
2021/12/11 00:35:31;;;;;;;17.20;10.30;;;;;;;-3.03;69.98;99884.47;681623;29;1519;-86
2021/12/11 00:35:54;;;;;;;18.40;10.00;;;;;;;-2.94;70.27;99895.31;682433;29;1007;-87
2021/12/11 00:36:20;;;;;;;16.80;10.30;;;;;;;-3.01;70.04;99883.81;684360;28;1634;-85
2021/12/11 00:36:50;;;;;;;14.75;9.93;;;;;;;-3.07;69.96;99875.72;682573;29;1135;-87
2021/12/11 00:37:14;;;;;;;13.57;9.38;;;;;;;-2.94;70.03;99893.66;685376;28;969;-87
2021/12/11 00:37:35;;;;;;;14.52;9.10;;;;;;;-3.02;70.09;99881.13;682707;28;1568;-86
2021/12/11 00:38:02;;;;;;;16.00;9.73;;;;;;;-3.06;69.91;99878.41;687935;28;1370;-86
2021/12/11 00:38:33;;;;;;;16.50;10.18;;;;;;;-2.98;69.91;99891.66;687733;28;972;-86
2021/12/11 00:38:54;;;;;;;13.57;9.80;;;;;;;-3.03;69.75;99876.81;687909;28;1062;-86
2021/12/11 00:39:15;;;;;;;14.55;9.68;;;;;;;-3.03;69.86;99890.44;687630;28;1174;-85
2021/12/11 00:40:04;;;;;;;15.90;9.75;;;;;;;-2.98;69.87;99903.56;685416;28;1360;-86
2021/12/11 00:40:26;;;;;;;14.05;9.90;;;;;;;-3.07;69.87;99894.50;684828;28;1053;-86
2021/12/11 00:40:48;;;;;;;14.63;9.50;;;;;;;-2.99;69.87;99899.22;684257;28;1219;-86
2021/12/11 00:41:11;;;;;;;15.43;9.60;;;;;;;-3.02;69.87;99899.91;682727;29;1384;-86
2021/12/11 00:41:33;;;;;;;15.30;9.68;;;;;;;-3.12;70.07;99883.06;686505;28;1154;-87
2021/12/11 00:41:56;;;;;;;14.00;9.95;;;;;;;-3.03;70.20;99915.13;682456;29;1359;-86
2021/12/11 00:42:18;;;;;;;15.65;9.98;;;;;;;-3.07;70.13;99899.59;682078;29;1061;-87
2021/12/11 00:42:39;;;;;;;15.90;9.82;;;;;;;-3.13;70.00;99896.63;683116;28;1361;-86
2021/12/11 00:43:04;;;;;;;17.00;9.80;;;;;;;-3.12;69.84;99898.38;687727;28;909;-86
2021/12/11 00:43:29;;;;;;;15.02;9.70;;;;;;;-3.13;69.85;99894.06;682452;29;1222;-86
2021/12/11 00:43:50;;;;;;;16.85;9.68;;;;;;;-3.11;69.98;99909.47;686341;28;1255;-86
2021/12/11 00:44:10;;;;;;;15.52;9.23;;;;;;;-3.10;69.75;99904.47;693276;28;1160;-86
2021/12/11 00:44:33;;;;;;;16.20;9.50;;;;;;;-3.06;69.64;99908.13;686649;28;1299;-87
2021/12/11 00:44:55;;;;;;;16.13;9.68;;;;;;;-3.07;70.05;99914.91;685056;28;1262;-86
2021/12/11 00:45:20;;;;;;;18.23;10.20;;;;;;;-3.17;69.94;99897.16;687754;28;1151;-86
2021/12/11 00:45:42;;;;;;;16.40;10.40;;;;;;;-3.16;69.96;99900.63;687783;28;1705;-87
2021/12/11 00:46:06;;;;;;;15.90;10.25;;;;;;;-3.17;70.02;99897.16;690465;28;1367;-87
2021/12/11 00:46:29;;;;;;;16.08;10.15;;;;;;;-3.11;70.02;99912.91;688055;28;1188;-86
2021/12/11 00:46:50;;;;;;;15.73;9.82;;;;;;;-3.19;69.88;99898.75;684750;28;1393;-87
2021/12/11 00:47:16;;;;;;;12.52;9.52;;;;;;;-3.14;69.96;99910.16;682742;28;1037;-86
2021/12/11 00:47:44;;;;;;;13.25;9.00;;;;;;;-3.17;70.17;99909.06;687244;28;1224;-87
2021/12/11 00:48:08;;;;;;;13.38;9.38;;;;;;;-3.15;69.94;99910.91;687382;28;1379;-87
2021/12/11 00:48:29;;;;;;;14.60;9.70;;;;;;;-3.21;69.95;99892.66;687765;28;1044;-87
2021/12/11 00:48:50;;;;;;;15.10;9.50;;;;;;;-3.17;70.01;99902.28;690050;28;1201;-86
2021/12/11 00:49:13;;;;;;;12.43;8.55;;;;;;;-3.11;70.30;99922.22;687477;28;1192;-87
2021/12/11 00:49:34;;;;;;;12.93;8.80;;;;;;;-3.23;70.24;99905.28;687699;28;1218;-86
2021/12/11 00:50:10;;;;;;;12.65;8.90;;;;;;;-3.19;70.37;99917.50;687849;28;1899;-85
2021/12/11 00:50:39;;;;;;;12.60;9.30;;;;;;;-3.29;69.98;99901.44;689675;28;1787;-87
2021/12/11 00:51:06;;;;;;;14.52;9.15;;;;;;;-3.27;70.20;99915.19;690860;28;1378;-87
2021/12/11 00:51:26;;;;;;;15.77;9.68;;;;;;;-3.25;70.23;99921.28;687896;28;1257;-86
2021/12/11 00:51:54;;;;;;;14.05;9.65;;;;;;;-3.27;70.22;99920.28;685347;28;720;-87
2021/12/11 00:52:15;;;;;;;13.32;9.15;;;;;;;-3.28;70.37;99919.38;687756;28;1130;-86
2021/12/11 00:52:47;;;;;;;13.40;9.00;;;;;;;-3.29;70.25;99916.75;691389;28;1127;-86
2021/12/11 00:53:18;;;;;;;12.70;9.35;;;;;;;-3.21;70.15;99925.81;690510;28;973;-87
2021/12/11 00:53:44;;;;;;;14.63;9.68;;;;;;;-3.17;70.17;99926.94;690114;28;1178;-87
2021/12/11 00:54:06;;;;;;;14.23;9.50;;;;;;;-3.28;70.42;99913.41;687795;28;1421;-86
2021/12/11 00:54:26;;;;;;;13.43;9.75;;;;;;;-3.17;70.14;99922.69;685207;28;1399;-86
2021/12/11 00:54:47;;;;;;;13.18;10.05;;;;;;;-3.27;70.44;99910.09;682836;29;784;-87
2021/12/11 00:55:23;;;;;;;13.25;9.85;;;;;;;-3.25;70.24;99916.16;685244;28;1145;-86
2021/12/11 00:55:51;;;;;;;15.52;9.18;;;;;;;-3.28;69.86;99898.09;682857;28;808;-87
2021/12/11 00:56:18;;;;;;;17.08;9.30;;;;;;;-3.29;70.28;99907.41;683268;28;1006;-87
2021/12/11 00:56:40;;;;;;;18.48;9.40;;;;;;;-3.25;69.87;99913.63;687524;28;1149;-86
2021/12/11 00:57:00;;;;;;;20.10;9.70;;;;;;;-3.26;70.05;99914.41;690697;28;938;-86
2021/12/11 00:57:22;;;;;;;18.42;9.60;;;;;;;-3.21;69.87;99924.13;687882;28;1200;-86
2021/12/11 00:57:44;;;;;;;19.33;10.05;;;;;;;-3.22;69.91;99918.97;687941;28;1428;-86
2021/12/11 00:58:27;;;;;;;15.30;9.65;;;;;;;-3.16;70.09;99929.56;684361;28;1489;-86
2021/12/11 00:58:51;;;;;;;16.15;9.40;;;;;;;-3.20;70.08;99936.13;685192;28;1132;-86
2021/12/11 00:59:18;;;;;;;16.25;9.40;;;;;;;-3.26;69.68;99922.97;684789;28;1122;-86
2021/12/11 00:59:39;;;;;;;16.15;9.50;;;;;;;-3.20;69.89;99940.34;683506;28;1461;-86
2021/12/11 01:00:14;;;;;;;15.90;9.43;;;;;;;-3.25;69.86;99928.94;687777;28;1276;-86
2021/12/11 01:00:44;;;;;;;16.10;9.48;;;;;;;-3.31;69.88;99919.19;684247;28;890;-86
2021/12/11 01:01:08;;;;;;;17.48;10.10;;;;;;;-3.22;70.16;99934.28;687713;28;1243;-86
2021/12/11 01:01:38;;;;;;;15.40;9.95;;;;;;;-3.32;69.94;99925.94;687781;28;1017;-86
2021/12/11 01:01:59;;;;;;;12.50;9.65;;;;;;;-3.24;70.18;99940.91;687796;28;1011;-87
2021/12/11 01:02:20;;;;;;;12.27;9.50;;;;;;;-3.34;69.93;99929.19;687932;28;1398;-85
2021/12/11 01:02:43;;;;;;;13.32;9.32;;;;;;;-3.34;69.64;99924.97;683782;28;1363;-86
2021/12/11 01:03:05;;;;;;;15.43;9.40;;;;;;;-3.31;69.97;99937.06;683861;28;1171;-87
2021/12/11 01:03:31;;;;;;;16.20;9.38;;;;;;;-3.31;70.09;99929.41;684635;28;1140;-86
2021/12/11 01:03:57;;;;;;;16.73;9.38;;;;;;;-3.24;70.17;99943.47;685102;28;1200;-86
2021/12/11 01:04:22;;;;;;;15.45;9.02;;;;;;;-3.35;69.90;99933.41;685117;28;1237;-86
2021/12/11 01:04:42;;;;;;;13.98;9.13;;;;;;;-3.26;69.99;99947.56;682286;28;1379;-86
2021/12/11 01:05:06;;;;;;;12.40;8.53;;;;;;;-3.26;69.97;99952.69;685152;28;1012;-86
2021/12/11 01:05:41;;;;;;;12.27;8.55;;;;;;;-3.24;69.77;99951.13;687285;28;1417;-86
2021/12/11 01:06:12;;;;;;;14.85;9.20;;;;;;;-3.29;70.04;99947.38;685125;28;1131;-86
2021/12/11 01:06:40;;;;;;;15.50;9.15;;;;;;;-3.25;70.11;99955.34;690556;28;1087;-86
2021/12/11 01:07:06;;;;;;;13.57;8.60;;;;;;;-3.40;69.99;99932.16;684066;28;1490;-87
2021/12/11 01:07:31;;;;;;;11.52;8.32;;;;;;;-3.36;69.87;99936.72;681184;29;1187;-86
2021/12/11 01:07:53;;;;;;;14.52;9.52;;;;;;;-3.32;69.80;99948.03;685223;28;1367;-86
2021/12/11 01:08:22;;;;;;;14.68;9.50;;;;;;;-3.29;69.90;99957.56;687944;28;1278;-86
2021/12/11 01:08:54;;;;;;;13.28;8.90;;;;;;;-3.36;70.00;99944.38;690209;28;1714;-86
2021/12/11 01:09:20;;;;;;;12.30;8.88;;;;;;;-3.27;69.93;99956.00;687512;28;1289;-86
2021/12/11 01:09:48;;;;;;;13.15;9.30;;;;;;;-3.34;69.89;99945.38;684819;28;1903;-86
2021/12/11 01:10:24;;;;;;;13.38;9.43;;;;;;;-3.33;69.83;99952.25;685156;28;1250;-86
2021/12/11 01:10:45;;;;;;;15.30;9.27;;;;;;;-3.35;70.10;99941.06;685362;28;1434;-86
2021/12/11 01:11:12;;;;;;;15.63;9.40;;;;;;;-3.27;70.13;99961.13;690412;28;1340;-86
2021/12/11 01:11:48;;;;;;;14.25;9.27;;;;;;;-3.30;70.14;99955.81;686347;28;1464;-87
2021/12/11 01:12:14;;;;;;;13.10;9.10;;;;;;;-3.29;70.03;99952.47;685775;28;1571;-87
2021/12/11 01:12:47;;;;;;;13.75;9.65;;;;;;;-3.26;69.87;99960.34;684207;28;1245;-86
2021/12/11 01:13:10;;;;;;;16.83;10.00;;;;;;;-3.36;70.22;99944.38;682243;29;1327;-86
2021/12/11 01:13:33;;;;;;;15.52;9.70;;;;;;;-3.33;70.02;99962.44;686269;28;1198;-87
2021/12/11 01:14:11;;;;;;;16.22;9.46;;;;;;;-3.34;70.09;99953.03;690472;28;1357;-86
2021/12/11 01:14:54;;;;;;;16.58;9.50;;;;;;;-3.22;70.33;99972.53;685718;28;1146;-86
2021/12/11 01:15:27;;;;;;;15.65;9.45;;;;;;;-3.33;70.15;99957.34;683426;28;984;-86
2021/12/11 01:16:06;;;;;;;15.07;9.40;;;;;;;-3.21;70.22;99975.19;686045;28;1231;-86
2021/12/11 01:16:26;;;;;;;14.50;8.85;;;;;;;-3.30;69.80;99958.38;685824;28;1587;-86
2021/12/11 01:17:12;;;;;;;11.87;8.20;;;;;;;-3.21;70.37;99977.72;687961;28;788;-86
2021/12/11 01:18:01;;;;;;;12.63;9.25;;;;;;;-3.20;70.04;99978.63;691010;28;1151;-86
2021/12/11 01:18:34;;;;;;;14.77;9.60;;;;;;;-3.24;69.75;99971.53;690048;28;894;-86
2021/12/11 01:18:57;;;;;;;10.82;9.23;;;;;;;-3.22;69.83;99977.66;690573;28;1053;-86
2021/12/11 01:19:19;;;;;;;11.38;9.45;;;;;;;-3.34;69.84;99965.78;687264;28;1254;-86
2021/12/11 01:19:45;;;;;;;14.95;9.90;;;;;;;-3.32;69.77;99965.91;690446;28;1147;-86
2021/12/11 01:20:24;;;;;;;17.35;10.05;;;;;;;-3.29;69.66;99967.78;687695;28;1434;-86
2021/12/11 01:20:59;;;;;;;14.02;8.95;;;;;;;-3.35;69.99;99964.00;684626;28;1338;-85
2021/12/11 01:21:43;;;;;;;15.55;9.10;;;;;;;-3.25;69.72;99985.06;687912;28;1032;-86
2021/12/11 01:22:33;;;;;;;15.40;9.45;;;;;;;-3.27;70.15;99981.53;687334;28;994;-86
2021/12/11 01:22:54;;;;;;;13.90;8.70;;;;;;;-3.25;70.25;99985.06;696024;28;1049;-87
2021/12/11 01:23:29;;;;;;;12.50;8.10;;;;;;;-3.30;69.86;99977.09;697852;28;1390;-87
2021/12/11 01:24:29;;;;;;;15.85;9.10;;;;;;;-3.37;69.87;99970.69;690296;28;1253;-86
2021/12/11 01:24:52;;;;;;;13.07;8.75;;;;;;;-3.36;69.91;99972.44;690107;28;1008;-85
2021/12/11 01:25:27;;;;;;;11.02;8.50;;;;;;;-3.32;70.05;99984.63;690124;28;1128;-86
2021/12/11 01:25:47;;;;;;;13.15;8.35;;;;;;;-3.35;69.75;99974.22;688193;28;1126;-86
2021/12/11 01:26:11;;;;;;;14.17;8.40;;;;;;;-3.30;70.07;99976.22;693217;28;1025;-86
2021/12/11 01:26:57;;;;;;;14.60;8.52;;;;;;;-3.35;70.11;99973.31;685450;28;1238;-86
2021/12/11 01:27:23;;;;;;;16.45;9.55;;;;;;;-3.33;69.76;99977.75;685215;28;955;-86
2021/12/11 01:27:51;;;;;;;13.40;9.38;;;;;;;-3.36;70.25;99971.53;682546;29;841;-86
2021/12/11 01:28:14;;;;;;;14.90;9.48;;;;;;;-3.32;69.97;99979.53;685225;28;1042;-86
2021/12/11 01:28:35;;;;;;;13.50;9.13;;;;;;;-3.27;70.15;99996.84;688927;28;1103;-86
2021/12/11 01:28:56;;;;;;;12.70;9.32;;;;;;;-3.29;70.02;99983.09;682571;29;1010;-86
2021/12/11 01:29:19;;;;;;;12.98;9.13;;;;;;;-3.34;69.93;99980.22;687356;28;1041;-86
2021/12/11 01:29:41;;;;;;;13.40;8.70;;;;;;;-3.27;69.81;99996.84;687739;28;1910;-86
2021/12/11 01:30:06;;;;;;;12.05;8.43;;;;;;;-3.32;70.17;99994.84;687676;28;1293;-87
2021/12/11 01:30:33;;;;;;;11.93;8.50;;;;;;;-3.39;70.04;99977.31;684549;28;1107;-86
2021/12/11 01:30:57;;;;;;;15.02;9.30;;;;;;;-3.26;70.24;100002.06;684772;28;1432;-86
2021/12/11 01:31:21;;;;;;;15.55;9.75;;;;;;;-3.39;70.19;99982.41;685179;28;1066;-86
2021/12/11 01:31:43;;;;;;;14.38;9.70;;;;;;;-3.29;69.81;100003.50;687505;28;1127;-86
2021/12/11 01:32:06;;;;;;;12.43;9.10;;;;;;;-3.28;69.80;100010.38;690478;28;1515;-86
2021/12/11 01:32:30;;;;;;;12.32;9.15;;;;;;;-3.35;70.00;99998.84;688889;28;1251;-86
2021/12/11 01:32:51;;;;;;;12.30;8.90;;;;;;;-3.32;70.12;100005.03;687337;28;1733;-85
2021/12/11 01:33:12;;;;;;;13.60;8.68;;;;;;;-3.35;70.10;99994.63;687779;28;1320;-86
2021/12/11 01:33:33;;;;;;;13.52;8.95;;;;;;;-3.26;70.02;100014.81;686569;28;1104;-86
2021/12/11 01:33:55;;;;;;;15.38;9.23;;;;;;;-3.24;69.95;100022.56;682433;28;1121;-86
2021/12/11 01:34:18;;;;;;;15.52;9.15;;;;;;;-3.29;69.95;100013.72;687830;28;1233;-86
2021/12/11 01:34:40;;;;;;;13.98;8.43;;;;;;;-3.26;69.83;100021.59;689579;28;1159;-86
2021/12/11 01:35:04;;;;;;;12.05;8.38;;;;;;;-3.32;69.75;100010.16;690454;28;1268;-86
2021/12/11 01:35:25;;;;;;;15.18;8.80;;;;;;;-3.36;69.99;99999.63;685081;28;1189;-85
2021/12/11 01:35:47;;;;;;;16.30;8.90;;;;;;;-3.34;69.92;100010.84;692380;28;1240;-86
2021/12/11 01:36:08;;;;;;;16.88;9.18;;;;;;;-3.27;70.04;100030.00;685177;28;1065;-86
2021/12/11 01:36:30;;;;;;;13.65;9.18;;;;;;;-3.36;70.09;100017.47;688610;28;1401;-86
2021/12/11 01:36:51;;;;;;;14.48;9.20;;;;;;;-3.35;69.85;100009.94;687725;28;1303;-86
2021/12/11 01:37:14;;;;;;;14.05;8.90;;;;;;;-3.37;69.82;100015.69;690599;28;1361;-87
2021/12/11 01:37:37;;;;;;;16.35;9.20;;;;;;;-3.36;69.96;100008.16;687739;28;1264;-86
2021/12/11 01:38:16;;;;;;;16.60;9.10;;;;;;;-3.37;69.69;100014.06;687857;28;1391;-86
2021/12/11 01:38:38;;;;;;;13.95;8.85;;;;;;;-3.40;70.12;100011.25;683162;28;1468;-85
2021/12/11 01:39:02;;;;;;;14.10;9.27;;;;;;;-3.39;69.82;100014.72;685063;28;1095;-87
2021/12/11 01:39:27;;;;;;;14.05;9.50;;;;;;;-3.33;70.24;100025.38;684673;28;1163;-86
2021/12/11 01:39:50;;;;;;;14.10;9.65;;;;;;;-3.30;69.94;100037.47;687908;28;1146;-86
2021/12/11 01:40:14;;;;;;;15.77;9.63;;;;;;;-3.36;69.76;100027.69;682436;28;1110;-86
2021/12/11 01:40:36;;;;;;;18.90;9.68;;;;;;;-3.32;70.11;100029.69;685286;28;979;-86
2021/12/11 01:41:10;;;;;;;17.85;9.25;;;;;;;-3.37;69.65;100025.91;684838;28;1437;-86
2021/12/11 01:41:31;;;;;;;13.45;8.70;;;;;;;-3.35;70.11;100040.56;682912;28;1239;-86
2021/12/11 01:41:53;;;;;;;13.55;8.90;;;;;;;-3.44;69.87;100019.50;687597;28;1081;-85
2021/12/11 01:42:22;;;;;;;13.65;9.10;;;;;;;-3.35;69.85;100039.66;692227;28;1119;-86
2021/12/11 01:42:44;;;;;;;15.35;9.77;;;;;;;-3.40;70.22;100030.81;688313;28;1478;-87
2021/12/11 01:43:06;;;;;;;14.95;9.38;;;;;;;-3.40;69.71;100029.13;682462;29;1370;-86
2021/12/11 01:43:30;;;;;;;12.27;8.80;;;;;;;-3.34;69.82;100032.13;687863;28;940;-85
2021/12/11 01:43:57;;;;;;;11.20;8.32;;;;;;;-3.32;69.72;100045.88;690390;28;1239;-86
2021/12/11 01:44:22;;;;;;;11.02;8.50;;;;;;;-3.40;70.08;100031.66;685118;28;1132;-86
2021/12/11 01:44:46;;;;;;;11.63;8.52;;;;;;;-3.30;69.96;100047.66;685126;28;1292;-87
2021/12/11 01:45:12;;;;;;;11.77;8.82;;;;;;;-3.41;70.30;100035.00;684870;28;1533;-86
2021/12/11 01:45:35;;;;;;;12.85;9.18;;;;;;;-3.30;69.74;100048.53;688727;28;1471;-86
2021/12/11 01:45:59;;;;;;;13.74;8.76;;;;;;;-3.41;70.33;100029.91;684677;28;1505;-86
2021/12/11 01:46:22;;;;;;;13.22;8.56;;;;;;;-3.42;70.17;100028.13;684988;28;1372;-86
2021/12/11 01:46:43;;;;;;;10.98;8.43;;;;;;;-3.30;70.04;100050.22;690529;28;1346;-87
2021/12/11 01:47:13;;;;;;;14.82;8.85;;;;;;;-3.35;70.13;100044.75;687584;28;1245;-86
2021/12/11 01:47:36;;;;;;;14.82;9.02;;;;;;;-3.34;70.00;100042.31;681260;28;1337;-86
2021/12/11 01:47:57;;;;;;;15.25;9.30;;;;;;;-3.37;69.83;100041.22;685037;28;1049;-86
2021/12/11 01:48:22;;;;;;;13.45;9.07;;;;;;;-3.34;70.08;100044.88;682392;29;1114;-86
2021/12/11 01:48:48;;;;;;;14.35;8.65;;;;;;;-3.38;69.89;100040.34;684803;28;1213;-86
2021/12/11 01:49:17;;;;;;;13.40;8.30;;;;;;;-3.29;70.16;100054.53;682307;28;1154;-86
2021/12/11 01:49:41;;;;;;;11.30;8.30;;;;;;;-3.32;70.34;100050.97;683425;28;1109;-86
2021/12/11 01:50:25;;;;;;;12.50;8.57;;;;;;;-3.26;70.03;100065.88;687630;28;1114;-86
2021/12/11 01:50:50;;;;;;;14.23;8.82;;;;;;;-3.32;70.24;100056.06;684090;28;1225;-86
2021/12/11 01:51:16;;;;;;;15.48;8.93;;;;;;;-3.36;69.96;100041.34;685209;28;1176;-86
2021/12/11 01:51:43;;;;;;;15.35;9.07;;;;;;;-3.25;70.21;100069.28;685961;28;1091;-86
2021/12/11 01:52:31;;;;;;;14.58;8.94;;;;;;;-3.33;70.15;100051.75;682323;29;1200;-86
2021/12/11 01:53:01;;;;;;;15.07;9.05;;;;;;;-3.24;70.15;100069.41;684912;28;1248;-86
2021/12/11 01:53:27;;;;;;;14.75;8.95;;;;;;;-3.33;69.80;100048.34;688133;28;1179;-86
2021/12/11 01:53:55;;;;;;;12.40;8.05;;;;;;;-3.21;70.30;100071.28;687778;28;1150;-86
2021/12/11 01:54:23;;;;;;;14.13;8.60;;;;;;;-3.26;70.13;100064.97;685210;28;1215;-86
2021/12/11 01:54:47;;;;;;;13.40;9.02;;;;;;;-3.23;70.18;100070.28;686697;28;873;-86
2021/12/11 01:55:25;;;;;;;12.93;8.80;;;;;;;-3.21;70.13;100074.72;686897;28;1181;-86
2021/12/11 01:55:53;;;;;;;14.73;9.35;;;;;;;-3.25;70.12;100065.09;684210;28;902;-86
2021/12/11 01:56:17;;;;;;;14.07;9.02;;;;;;;-3.32;70.44;100053.53;687609;28;1434;-87
2021/12/11 01:56:42;;;;;;;14.48;9.02;;;;;;;-3.30;70.16;100055.31;687635;28;1537;-86
2021/12/11 01:57:11;;;;;;;11.43;8.82;;;;;;;-3.32;70.09;100066.28;685089;28;1066;-86
2021/12/11 01:57:32;;;;;;;11.34;8.90;;;;;;;-3.25;69.94;100069.28;682394;29;1204;-86
2021/12/11 01:57:55;;;;;;;10.73;9.03;;;;;;;-3.21;70.15;100078.94;687694;28;1271;-86
2021/12/11 01:58:24;;;;;;;10.88;8.85;;;;;;;-3.32;70.23;100055.22;687686;28;1155;-86
2021/12/11 01:58:57;;;;;;;12.55;8.80;;;;;;;-3.21;69.94;100078.94;685113;28;1302;-85
2021/12/11 01:59:25;;;;;;;13.27;9.10;;;;;;;-3.30;69.92;100057.88;681976;29;1088;-86
2021/12/11 01:59:52;;;;;;;16.08;9.70;;;;;;;-3.27;69.89;100069.16;683767;28;1249;-85
2021/12/11 02:00:20;;;;;;;16.95;9.48;;;;;;;-3.20;70.07;100081.59;682665;29;1090;-86
2021/12/11 02:00:46;;;;;;;16.83;9.48;;;;;;;-3.22;70.42;100077.19;683102;28;1073;-87
2021/12/11 02:01:13;;;;;;;16.30;10.00;;;;;;;-3.24;70.49;100065.94;683795;28;2036;-86
2021/12/11 02:01:46;;;;;;;16.40;9.90;;;;;;;-3.24;70.18;100060.84;685296;28;1380;-86
2021/12/11 02:02:22;;;;;;;15.75;9.50;;;;;;;-3.22;70.31;100066.97;687643;28;1105;-86
2021/12/11 02:02:50;;;;;;;18.15;10.02;;;;;;;-3.13;70.09;100082.94;693213;28;1391;-86
2021/12/11 02:03:20;;;;;;;19.52;10.00;;;;;;;-3.04;70.10;100095.47;694453;28;1016;-86
2021/12/11 02:03:41;;;;;;;20.55;10.48;;;;;;;-3.14;70.13;100078.63;689071;28;1224;-86
2021/12/11 02:04:05;;;;;;;16.85;10.23;;;;;;;-3.06;70.06;100090.28;685560;28;1252;-86
2021/12/11 02:04:27;;;;;;;15.25;9.70;;;;;;;-3.16;70.21;100075.03;685056;28;1258;-86
2021/12/11 02:04:50;;;;;;;13.40;9.32;;;;;;;-3.02;70.17;100099.03;691166;28;1239;-86